Current Weather

Georgetown Muni

Georgetown, Texas (KGTU)

Report from: Monday, September 26, 2022 6:56 PM CDT
Current time: Monday, September 26, 2022 8:03 PM CDT

Nearby weather
Weather history
Weather forecast

Temperature29.4°C (84.9°F)
Heat index28.0°C (82.4°F)
Dew point6.7°C (44.1°F)
Winds 9 kts (4.6 m/s, 10.4 mph) North (10°)
Visibility10 mi. (16.1 km)
Clouds Sky clear
Altimeter30.06 in.Hg (1018 mB)
Relative humidity24 %
Density altitude1,641 ft. (500 m)
Sea-level pressure101.7 kPa (1017 mB, 30.04 in.Hg)
Max temp last 6 hours32.8°C (91.0°F)
Min temp last 6 hours29.4°C (84.9°F)
Remarks Automated weather observing station with precipitation discriminator
Pressure rising more quickly
Flight conditions Visual Meteorological Conditions
Raw dataKGTU 262356Z 01009KT 10SM CLR 29/07 A3006 RMK AO2 SLP173 T02940067 10328 20294 53003
An unhandled exception has occurred. See browser dev tools for details. Reload 🗙